Time;durP1;ratioP1;P1;durP2;ratioP2;P2;SDS_P1;SDS_P2;PMS_P1;PMS_P2;Temp;Humidity;BMP_temperature;BMP_pressure;BME280_temperature;BME280_humidity;BME280_pressure;Samples;Min_cycle;Max_cycle;Signal;HPM_P1;HPM_P2
2021/12/20 00:00:26;;;;;;;14.67;8.47;;;;;;;;;;4971393;28;20204;-62
2021/12/20 00:02:55;;;;;;;17.03;9.17;;;;;;;;;;4970916;28;20232;-64
2021/12/20 00:05:23;;;;;;;20.53;9.70;;;;;;;;;;4957193;28;20208;-63
2021/12/20 00:07:51;;;;;;;19.27;10.37;;;;;;;;;;4966462;28;20243;-63
2021/12/20 00:10:19;;;;;;;18.47;9.50;;;;;;;;;;4974668;28;20205;-63
2021/12/20 00:12:46;;;;;;;19.10;10.90;;;;;;;;;;4979088;28;20221;-64
2021/12/20 00:15:14;;;;;;;19.90;9.83;;;;;;;;;;4961774;28;20215;-64
2021/12/20 00:17:42;;;;;;;19.70;10.30;;;;;;;;;;4958398;28;20662;-62
2021/12/20 00:20:09;;;;;;;20.03;11.60;;;;;;;;;;4957970;28;20385;-62
2021/12/20 00:22:37;;;;;;;26.20;12.57;;;;;;;;;;4964675;28;20243;-64
2021/12/20 00:25:05;;;;;;;24.40;11.67;;;;;;;;;;4953420;28;20216;-64
2021/12/20 00:27:32;;;;;;;25.93;12.83;;;;;;;;;;4965364;28;20224;-64
2021/12/20 00:30:00;;;;;;;21.17;11.30;;;;;;;;;;4991349;28;20838;-64
2021/12/20 00:32:27;;;;;;;24.17;12.53;;;;;;;;;;4959747;28;20271;-64
2021/12/20 00:34:54;;;;;;;21.17;11.63;;;;;;;;;;4968431;28;20645;-64
2021/12/20 00:40:21;;;;;;;25.60;12.57;;;;;;;;;;4982331;28;20227;-62
2021/12/20 00:42:50;;;;;;;22.43;11.43;;;;;;;;;;4969172;28;20243;-64
2021/12/20 00:45:17;;;;;;;20.97;11.53;;;;;;;;;;4969492;28;20212;-63
2021/12/20 00:47:45;;;;;;;23.80;12.37;;;;;;;;;;4955082;28;20283;-64
2021/12/20 00:50:14;;;;;;;16.27;10.27;;;;;;;;;;4958634;28;20903;-64
2021/12/20 00:52:42;;;;;;;17.83;10.53;;;;;;;;;;4961193;28;20232;-64
2021/12/20 00:55:09;;;;;;;18.97;10.97;;;;;;;;;;4967077;28;20658;-64
2021/12/20 00:57:37;;;;;;;20.40;12.07;;;;;;;;;;4959145;28;20212;-64
2021/12/20 01:00:06;;;;;;;21.07;11.47;;;;;;;;;;4962003;28;20209;-64
2021/12/20 01:02:33;;;;;;;19.40;11.37;;;;;;;;;;4972591;28;20713;-62
2021/12/20 01:05:01;;;;;;;20.23;11.67;;;;;;;;;;4961439;28;20219;-63
2021/12/20 01:07:29;;;;;;;26.07;13.13;;;;;;;;;;4982055;28;20278;-63
2021/12/20 01:10:02;;;;;;;22.67;12.70;;;;;;;;;;4963918;28;20262;-63
2021/12/20 01:12:40;;;;;;;22.73;12.77;;;;;;;;;;4960632;28;20629;-64
2021/12/20 01:15:09;;;;;;;22.90;12.27;;;;;;;;;;4971938;28;20817;-64
2021/12/20 01:17:38;;;;;;;22.17;12.73;;;;;;;;;;4961932;28;20208;-62
2021/12/20 01:20:07;;;;;;;19.80;11.67;;;;;;;;;;4970350;28;20208;-64
2021/12/20 01:22:34;;;;;;;20.13;11.70;;;;;;;;;;4977348;28;20234;-65
2021/12/20 01:25:01;;;;;;;23.90;12.03;;;;;;;;;;4976613;28;20935;-65
2021/12/20 01:27:29;;;;;;;22.57;12.07;;;;;;;;;;4970235;28;20228;-64
2021/12/20 01:29:56;;;;;;;20.97;12.30;;;;;;;;;;4964363;28;20263;-64
2021/12/20 01:32:24;;;;;;;22.93;12.93;;;;;;;;;;4967055;28;20643;-64
2021/12/20 01:34:51;;;;;;;24.27;14.53;;;;;;;;;;4972595;28;20204;-65
2021/12/20 01:37:22;;;;;;;25.63;13.60;;;;;;;;;;4964392;28;20569;-64
2021/12/20 01:39:49;;;;;;;26.53;15.27;;;;;;;;;;4950305;28;20204;-64
2021/12/20 01:42:18;;;;;;;26.30;14.53;;;;;;;;;;4964815;28;20638;-64
2021/12/20 01:44:46;;;;;;;25.83;14.43;;;;;;;;;;4961591;28;20205;-62
2021/12/20 01:47:14;;;;;;;26.07;14.33;;;;;;;;;;4981113;28;20252;-64
2021/12/20 01:49:58;;;;;;;26.33;13.07;;;;;;;;;;4995187;28;20262;-66
2021/12/20 01:52:28;;;;;;;26.37;14.40;;;;;;;;;;4957234;28;20232;-64
2021/12/20 01:54:55;;;;;;;27.17;15.87;;;;;;;;;;4966455;28;20250;-63
2021/12/20 01:57:24;;;;;;;36.17;17.13;;;;;;;;;;4970783;28;20209;-64
2021/12/20 01:59:51;;;;;;;31.23;17.07;;;;;;;;;;4967261;28;20208;-65
2021/12/20 02:02:18;;;;;;;29.97;17.50;;;;;;;;;;4981979;28;20247;-63
2021/12/20 02:04:49;;;;;;;29.73;16.57;;;;;;;;;;4975001;28;20208;-64
2021/12/20 02:07:49;;;;;;;30.13;16.10;;;;;;;;;;4964500;28;20234;-62
2021/12/20 02:10:07;;;;;;;26.17;13.90;;;;;;;;;;4980581;28;20570;-64
2021/12/20 02:12:35;;;;;;;21.20;12.70;;;;;;;;;;4969481;28;20228;-64
2021/12/20 02:15:03;;;;;;;22.13;14.10;;;;;;;;;;4982232;28;20613;-65
2021/12/20 02:17:30;;;;;;;24.73;14.80;;;;;;;;;;4963704;28;20204;-63
2021/12/20 02:20:01;;;;;;;30.87;17.10;;;;;;;;;;4972692;28;20212;-65
2021/12/20 02:22:29;;;;;;;30.43;18.43;;;;;;;;;;4961096;28;20231;-64
2021/12/20 02:24:56;;;;;;;30.47;17.47;;;;;;;;;;4959722;28;20213;-63
2021/12/20 02:27:24;;;;;;;32.17;17.70;;;;;;;;;;4978442;28;20977;-64
2021/12/20 02:30:12;;;;;;;31.07;18.87;;;;;;;;;;4960418;28;20213;-63
2021/12/20 02:38:23;;;;;;;26.93;16.10;;;;;;;;;;4969743;28;20290;-64
2021/12/20 02:41:04;;;;;;;26.80;15.43;;;;;;;;;;4958673;28;20306;-64
2021/12/20 02:43:36;;;;;;;27.43;16.07;;;;;;;;;;4962202;28;20228;-63
2021/12/20 02:46:07;;;;;;;28.20;16.67;;;;;;;;;;4967795;28;20697;-63
2021/12/20 02:48:34;;;;;;;23.87;13.83;;;;;;;;;;4952694;28;20228;-64
2021/12/20 02:51:02;;;;;;;18.97;12.00;;;;;;;;;;4968036;28;20197;-65
2021/12/20 02:53:29;;;;;;;20.10;13.00;;;;;;;;;;4962864;28;20247;-64
2021/12/20 02:55:56;;;;;;;22.93;14.83;;;;;;;;;;4972739;28;20208;-64
2021/12/20 02:58:24;;;;;;;21.23;14.10;;;;;;;;;;4964906;28;20209;-64
2021/12/20 03:00:52;;;;;;;22.60;14.23;;;;;;;;;;4968101;28;20276;-64
2021/12/20 03:03:19;;;;;;;24.20;15.03;;;;;;;;;;4979337;28;20315;-64
2021/12/20 03:05:47;;;;;;;24.70;14.27;;;;;;;;;;4968080;28;20285;-64
2021/12/20 03:08:14;;;;;;;28.67;17.07;;;;;;;;;;4976428;28;20308;-64
2021/12/20 03:10:42;;;;;;;23.50;14.60;;;;;;;;;;4958708;28;20306;-64
2021/12/20 03:13:10;;;;;;;18.77;12.57;;;;;;;;;;4965178;28;20274;-65
2021/12/20 03:15:37;;;;;;;19.27;13.40;;;;;;;;;;4964891;28;20267;-63
2021/12/20 03:18:05;;;;;;;18.03;10.90;;;;;;;;;;4947454;28;20307;-64
2021/12/20 03:20:32;;;;;;;17.80;12.53;;;;;;;;;;4961530;28;20216;-64
2021/12/20 03:23:00;;;;;;;21.83;14.10;;;;;;;;;;4959249;28;20232;-65
2021/12/20 03:25:27;;;;;;;22.27;14.83;;;;;;;;;;4960219;28;20251;-62
2021/12/20 03:27:54;;;;;;;24.07;14.97;;;;;;;;;;4977420;28;20871;-65
2021/12/20 03:30:22;;;;;;;21.53;14.20;;;;;;;;;;4954932;28;20738;-65
2021/12/20 03:32:49;;;;;;;23.00;14.17;;;;;;;;;;4962266;28;20275;-64
2021/12/20 03:35:16;;;;;;;20.70;13.47;;;;;;;;;;4957207;28;20673;-64
2021/12/20 03:37:44;;;;;;;22.27;14.93;;;;;;;;;;4962445;28;20216;-64
2021/12/20 03:40:12;;;;;;;21.70;13.53;;;;;;;;;;4952715;28;20224;-64
2021/12/20 03:42:45;;;;;;;21.13;13.90;;;;;;;;;;4951608;28;20333;-64
2021/12/20 03:45:14;;;;;;;25.17;15.40;;;;;;;;;;4958505;28;20259;-62
2021/12/20 03:47:42;;;;;;;23.47;14.77;;;;;;;;;;4972785;28;20224;-65
2021/12/20 03:50:10;;;;;;;23.43;15.67;;;;;;;;;;4961875;28;20248;-64
2021/12/20 03:52:38;;;;;;;21.83;14.17;;;;;;;;;;4964706;28;20298;-63
2021/12/20 03:55:07;;;;;;;20.93;14.60;;;;;;;;;;4961877;28;20204;-64
2021/12/20 03:57:34;;;;;;;22.23;15.60;;;;;;;;;;4967717;28;20733;-65
2021/12/20 04:00:03;;;;;;;24.23;15.47;;;;;;;;;;4951766;28;20259;-64
2021/12/20 04:02:38;;;;;;;24.20;14.80;;;;;;;;;;4958481;28;20577;-62
2021/12/20 04:05:05;;;;;;;23.70;15.40;;;;;;;;;;4947869;28;20662;-62
2021/12/20 04:07:33;;;;;;;21.83;14.60;;;;;;;;;;4965070;28;20232;-65
2021/12/20 04:10:00;;;;;;;22.57;14.50;;;;;;;;;;4951417;28;20248;-64
2021/12/20 04:12:28;;;;;;;23.10;14.73;;;;;;;;;;4954911;28;21874;-63
2021/12/20 04:14:55;;;;;;;23.17;14.83;;;;;;;;;;4964623;28;20231;-64
2021/12/20 04:17:23;;;;;;;22.80;15.00;;;;;;;;;;4967437;28;20205;-63
2021/12/20 04:19:50;;;;;;;25.13;15.60;;;;;;;;;;4964054;28;20216;-64
2021/12/20 04:22:21;;;;;;;26.73;15.63;;;;;;;;;;4956738;28;20231;-64
2021/12/20 04:24:48;;;;;;;21.43;14.87;;;;;;;;;;4972861;28;20219;-64
2021/12/20 04:27:15;;;;;;;25.93;16.67;;;;;;;;;;4963875;28;20256;-64
2021/12/20 04:29:43;;;;;;;27.30;16.93;;;;;;;;;;4958285;28;20208;-64
2021/12/20 04:32:10;;;;;;;26.00;15.10;;;;;;;;;;4963405;28;20221;-64
2021/12/20 04:34:37;;;;;;;24.07;15.60;;;;;;;;;;4961064;28;20208;-64
2021/12/20 04:37:07;;;;;;;23.37;15.37;;;;;;;;;;4965027;28;20208;-63
2021/12/20 04:39:35;;;;;;;25.57;16.17;;;;;;;;;;4968296;28;20207;-63
2021/12/20 04:42:02;;;;;;;23.90;16.07;;;;;;;;;;4947895;28;20694;-65
2021/12/20 04:44:30;;;;;;;23.57;15.00;;;;;;;;;;4960269;28;20243;-63
2021/12/20 04:46:57;;;;;;;23.63;15.50;;;;;;;;;;4978788;28;20239;-64
2021/12/20 04:49:25;;;;;;;23.67;14.97;;;;;;;;;;4961729;28;20237;-63
2021/12/20 04:51:56;;;;;;;25.13;16.27;;;;;;;;;;4949717;28;20275;-64
2021/12/20 04:54:23;;;;;;;27.60;16.80;;;;;;;;;;4957855;28;20204;-63
2021/12/20 04:56:50;;;;;;;28.27;16.17;;;;;;;;;;4950491;28;20224;-62
2021/12/20 04:59:18;;;;;;;26.93;16.30;;;;;;;;;;4957963;28;20256;-64
2021/12/20 05:01:46;;;;;;;26.27;16.83;;;;;;;;;;4969518;28;20781;-63
2021/12/20 05:04:13;;;;;;;28.30;16.97;;;;;;;;;;4959753;28;20227;-65
2021/12/20 05:06:40;;;;;;;27.13;17.07;;;;;;;;;;4972660;28;20216;-63
2021/12/20 05:09:08;;;;;;;27.53;17.33;;;;;;;;;;4962867;28;20225;-65
2021/12/20 05:11:36;;;;;;;29.23;17.60;;;;;;;;;;4965896;28;20219;-63
2021/12/20 05:14:03;;;;;;;27.63;16.70;;;;;;;;;;4971409;28;20197;-64
2021/12/20 05:16:30;;;;;;;25.40;16.77;;;;;;;;;;4975559;28;20258;-63
2021/12/20 05:18:58;;;;;;;23.87;15.23;;;;;;;;;;4965281;28;20205;-64
2021/12/20 05:21:26;;;;;;;24.40;16.43;;;;;;;;;;4978883;28;20331;-63
2021/12/20 05:23:53;;;;;;;23.97;16.03;;;;;;;;;;4957295;28;20208;-63
2021/12/20 05:26:21;;;;;;;28.07;17.50;;;;;;;;;;4960024;28;20216;-65
2021/12/20 05:28:49;;;;;;;28.37;16.90;;;;;;;;;;4951251;28;20287;-62
2021/12/20 05:31:17;;;;;;;26.97;16.97;;;;;;;;;;4972364;28;20311;-64
2021/12/20 05:33:44;;;;;;;27.03;17.27;;;;;;;;;;4969291;28;20220;-64
2021/12/20 05:36:12;;;;;;;30.03;18.90;;;;;;;;;;4968898;28;20248;-64
2021/12/20 05:38:48;;;;;;;29.07;18.27;;;;;;;;;;4947267;28;20243;-64
2021/12/20 05:41:15;;;;;;;26.47;17.73;;;;;;;;;;4952535;28;20209;-64
2021/12/20 05:43:42;;;;;;;23.57;15.40;;;;;;;;;;4953085;28;20228;-63
2021/12/20 05:46:11;;;;;;;22.20;14.60;;;;;;;;;;4954448;28;20213;-65
2021/12/20 05:48:39;;;;;;;25.60;15.37;;;;;;;;;;4959488;28;20240;-64
2021/12/20 05:51:07;;;;;;;19.90;12.73;;;;;;;;;;4958588;28;20598;-64
2021/12/20 05:53:35;;;;;;;22.33;14.30;;;;;;;;;;4969083;28;20231;-64
2021/12/20 05:56:02;;;;;;;24.97;14.90;;;;;;;;;;4956192;28;20251;-63
2021/12/20 05:58:30;;;;;;;24.93;14.67;;;;;;;;;;4950383;28;20267;-63
2021/12/20 06:00:57;;;;;;;27.17;15.27;;;;;;;;;;4962028;28;20701;-65
2021/12/20 06:03:25;;;;;;;25.67;14.67;;;;;;;;;;4962201;28;20240;-64
2021/12/20 06:05:53;;;;;;;27.00;16.30;;;;;;;;;;4973203;28;20671;-64
2021/12/20 06:08:20;;;;;;;26.97;15.50;;;;;;;;;;4958877;28;20280;-63
2021/12/20 06:10:47;;;;;;;26.83;15.40;;;;;;;;;;4963728;28;20213;-65
2021/12/20 06:13:15;;;;;;;52.17;28.47;;;;;;;;;;4970192;28;20220;-63
2021/12/20 06:15:42;;;;;;;81.97;43.10;;;;;;;;;;4955657;28;20211;-63
2021/12/20 06:18:09;;;;;;;47.37;26.50;;;;;;;;;;4959995;28;20221;-64
2021/12/20 06:20:38;;;;;;;38.03;22.10;;;;;;;;;;4956490;28;20227;-64
2021/12/20 06:23:05;;;;;;;32.67;18.10;;;;;;;;;;4969324;28;20228;-64
2021/12/20 06:25:34;;;;;;;29.90;17.73;;;;;;;;;;4957054;28;20212;-64
2021/12/20 06:28:01;;;;;;;30.77;16.70;;;;;;;;;;4961923;28;20686;-63
2021/12/20 06:30:29;;;;;;;29.90;17.67;;;;;;;;;;4963373;28;20197;-64
2021/12/20 06:32:56;;;;;;;30.90;16.60;;;;;;;;;;4962667;28;20224;-63
2021/12/20 06:35:34;;;;;;;31.10;17.67;;;;;;;;;;4962841;28;20207;-64
2021/12/20 06:38:03;;;;;;;32.37;17.83;;;;;;;;;;4955044;28;20219;-63
2021/12/20 06:40:32;;;;;;;29.97;17.50;;;;;;;;;;4969755;28;20618;-65
2021/12/20 06:43:00;;;;;;;30.03;17.53;;;;;;;;;;4956071;28;20252;-64
2021/12/20 06:45:31;;;;;;;34.13;18.53;;;;;;;;;;4952461;28;20219;-64
2021/12/20 06:47:58;;;;;;;31.80;17.57;;;;;;;;;;4960496;28;20212;-65
2021/12/20 06:50:25;;;;;;;29.87;16.70;;;;;;;;;;4959515;28;20744;-65
2021/12/20 06:52:53;;;;;;;29.57;17.17;;;;;;;;;;4963794;28;20295;-63
2021/12/20 06:55:20;;;;;;;31.63;16.97;;;;;;;;;;4956586;28;20215;-64
2021/12/20 06:57:48;;;;;;;30.53;17.73;;;;;;;;;;4961480;28;20749;-64
2021/12/20 07:00:16;;;;;;;32.90;17.07;;;;;;;;;;4959523;28;20279;-64
2021/12/20 07:02:43;;;;;;;32.80;17.73;;;;;;;;;;4969919;28;20586;-65
2021/12/20 07:05:11;;;;;;;33.33;17.80;;;;;;;;;;4966980;28;20231;-63
2021/12/20 07:07:39;;;;;;;31.37;16.60;;;;;;;;;;4965450;28;20692;-63
2021/12/20 07:10:07;;;;;;;29.93;16.40;;;;;;;;;;4961829;28;20236;-65
2021/12/20 07:12:36;;;;;;;28.57;16.67;;;;;;;;;;4972057;28;20246;-62
2021/12/20 07:15:04;;;;;;;28.43;16.30;;;;;;;;;;4971929;28;20212;-63
2021/12/20 07:17:32;;;;;;;29.37;16.40;;;;;;;;;;4948868;28;20208;-63
2021/12/20 07:19:59;;;;;;;28.20;15.27;;;;;;;;;;4957316;28;20240;-64
2021/12/20 07:22:27;;;;;;;28.67;16.03;;;;;;;;;;4967569;28;20706;-64
2021/12/20 07:24:54;;;;;;;28.57;16.77;;;;;;;;;;4961036;28;20244;-63
2021/12/20 07:27:21;;;;;;;31.80;16.57;;;;;;;;;;4959564;28;20208;-64
2021/12/20 07:29:49;;;;;;;31.60;17.97;;;;;;;;;;4973288;28;20227;-62
2021/12/20 07:32:16;;;;;;;38.83;22.27;;;;;;;;;;4951667;28;20216;-63
2021/12/20 07:34:44;;;;;;;59.00;30.40;;;;;;;;;;4950789;28;20213;-64
2021/12/20 07:37:11;;;;;;;37.73;19.40;;;;;;;;;;4952775;28;20295;-64
2021/12/20 07:39:39;;;;;;;29.30;17.00;;;;;;;;;;4974817;28;20205;-63
2021/12/20 07:42:07;;;;;;;32.17;16.97;;;;;;;;;;4974477;28;20696;-63
2021/12/20 07:44:34;;;;;;;36.40;17.20;;;;;;;;;;4972240;28;20219;-64
2021/12/20 07:47:02;;;;;;;28.57;16.83;;;;;;;;;;4970565;28;20283;-64
2021/12/20 07:49:30;;;;;;;28.57;16.13;;;;;;;;;;4962609;28;20227;-63
2021/12/20 07:51:57;;;;;;;31.73;16.50;;;;;;;;;;4952992;28;20953;-65
2021/12/20 07:54:25;;;;;;;28.03;15.73;;;;;;;;;;4955626;28;20209;-64
2021/12/20 07:56:56;;;;;;;27.60;16.87;;;;;;;;;;4971957;28;20961;-64
2021/12/20 07:59:24;;;;;;;28.93;16.50;;;;;;;;;;4951314;28;20208;-63
2021/12/20 08:01:51;;;;;;;29.63;17.13;;;;;;;;;;4948577;28;20697;-64
2021/12/20 08:04:21;;;;;;;35.93;19.60;;;;;;;;;;4955404;28;20262;-64
2021/12/20 08:06:49;;;;;;;32.53;17.60;;;;;;;;;;4963037;28;20216;-64
2021/12/20 08:09:17;;;;;;;33.97;18.30;;;;;;;;;;4958869;28;20242;-63
2021/12/20 08:11:45;;;;;;;33.87;19.50;;;;;;;;;;4956058;28;20208;-64
2021/12/20 08:14:12;;;;;;;36.50;20.57;;;;;;;;;;4953829;28;20236;-65
2021/12/20 08:16:40;;;;;;;33.13;18.57;;;;;;;;;;4951505;28;21493;-63
2021/12/20 08:19:07;;;;;;;28.83;16.97;;;;;;;;;;4961205;28;21570;-64
2021/12/20 08:21:35;;;;;;;27.43;17.03;;;;;;;;;;4966324;28;20215;-64
2021/12/20 08:24:02;;;;;;;27.63;16.17;;;;;;;;;;4961968;28;20209;-63
2021/12/20 08:26:31;;;;;;;28.73;17.07;;;;;;;;;;4971492;28;20208;-64
2021/12/20 08:28:58;;;;;;;31.87;17.40;;;;;;;;;;4962219;28;20217;-63
2021/12/20 08:31:25;;;;;;;26.93;15.63;;;;;;;;;;4971871;28;20590;-64
2021/12/20 08:33:54;;;;;;;31.97;18.83;;;;;;;;;;4955695;28;20418;-64
2021/12/20 08:36:22;;;;;;;33.33;19.23;;;;;;;;;;4955489;28;20208;-63
2021/12/20 08:38:50;;;;;;;30.60;17.43;;;;;;;;;;4955526;28;20270;-63
2021/12/20 08:41:17;;;;;;;30.13;17.07;;;;;;;;;;4955376;28;20216;-65
2021/12/20 08:43:45;;;;;;;26.43;16.00;;;;;;;;;;4958682;28;20240;-64
2021/12/20 08:46:15;;;;;;;24.53;15.00;;;;;;;;;;4955155;28;20623;-65
2021/12/20 08:48:43;;;;;;;24.97;14.80;;;;;;;;;;4955288;28;20759;-61
2021/12/20 08:51:11;;;;;;;21.87;14.07;;;;;;;;;;4970407;28;20196;-65
2021/12/20 08:53:40;;;;;;;22.23;13.83;;;;;;;;;;4953856;28;20227;-63
2021/12/20 08:56:07;;;;;;;24.23;15.03;;;;;;;;;;4964980;28;20233;-63
2021/12/20 08:58:35;;;;;;;23.87;15.00;;;;;;;;;;4950130;28;20902;-63
2021/12/20 09:01:02;;;;;;;22.80;14.30;;;;;;;;;;4959576;28;20197;-63
2021/12/20 09:03:31;;;;;;;19.73;12.43;;;;;;;;;;4970615;28;20221;-64
2021/12/20 09:05:58;;;;;;;19.13;12.17;;;;;;;;;;4970039;28;20260;-64
2021/12/20 09:08:25;;;;;;;21.13;12.70;;;;;;;;;;4955256;28;20208;-63
2021/12/20 09:10:53;;;;;;;19.00;11.50;;;;;;;;;;4952301;28;20259;-64
2021/12/20 09:13:20;;;;;;;18.63;11.70;;;;;;;;;;4945346;28;20232;-64
2021/12/20 09:15:48;;;;;;;21.77;13.37;;;;;;;;;;4963304;28;20205;-65
2021/12/20 09:18:16;;;;;;;22.30;11.93;;;;;;;;;;4952829;28;20693;-63
2021/12/20 09:20:43;;;;;;;17.90;12.10;;;;;;;;;;4960948;28;20295;-63
2021/12/20 09:23:13;;;;;;;21.20;12.60;;;;;;;;;;4959534;28;20626;-64
2021/12/20 09:25:43;;;;;;;19.87;12.23;;;;;;;;;;4964380;28;21160;-64
2021/12/20 09:28:11;;;;;;;20.33;12.10;;;;;;;;;;4967827;28;20209;-63
2021/12/20 09:30:40;;;;;;;17.60;11.47;;;;;;;;;;4963560;28;20224;-64
2021/12/20 09:33:07;;;;;;;16.70;10.87;;;;;;;;;;4975128;28;20247;-64
2021/12/20 09:35:35;;;;;;;17.70;11.10;;;;;;;;;;4955941;28;20208;-64
2021/12/20 09:38:06;;;;;;;18.60;11.07;;;;;;;;;;4963540;28;20247;-64
2021/12/20 09:40:40;;;;;;;17.87;10.73;;;;;;;;;;4974263;28;20296;-62
2021/12/20 09:43:10;;;;;;;19.07;10.70;;;;;;;;;;4968652;28;20232;-64
2021/12/20 09:45:39;;;;;;;16.43;10.60;;;;;;;;;;4968144;28;20205;-64
2021/12/20 09:48:07;;;;;;;17.37;11.00;;;;;;;;;;4973014;28;20219;-64
2021/12/20 09:50:34;;;;;;;15.53;10.17;;;;;;;;;;4979336;28;20227;-64
2021/12/20 09:53:07;;;;;;;15.40;10.10;;;;;;;;;;4960066;28;20216;-63
2021/12/20 09:55:35;;;;;;;15.27;9.50;;;;;;;;;;4966426;28;20204;-63
2021/12/20 09:58:04;;;;;;;18.47;10.20;;;;;;;;;;4957055;28;20205;-64
2021/12/20 10:00:32;;;;;;;18.53;10.77;;;;;;;;;;4972968;28;20212;-63
2021/12/20 10:02:59;;;;;;;17.33;9.87;;;;;;;;;;4969951;28;20289;-64
2021/12/20 10:05:27;;;;;;;16.97;10.40;;;;;;;;;;4964255;28;20291;-64
2021/12/20 10:07:56;;;;;;;15.73;9.97;;;;;;;;;;4962527;28;20208;-64
2021/12/20 10:10:36;;;;;;;17.17;10.67;;;;;;;;;;4958655;28;20247;-64
2021/12/20 10:13:04;;;;;;;18.20;10.43;;;;;;;;;;4970548;28;20247;-64
2021/12/20 10:15:37;;;;;;;16.33;9.97;;;;;;;;;;4953507;28;20200;-64
2021/12/20 10:18:11;;;;;;;18.17;10.27;;;;;;;;;;4958380;28;20216;-64
2021/12/20 10:20:39;;;;;;;15.23;9.40;;;;;;;;;;4949884;28;20814;-63
2021/12/20 10:23:12;;;;;;;16.83;9.10;;;;;;;;;;4954943;28;20236;-63
2021/12/20 10:25:40;;;;;;;15.43;9.50;;;;;;;;;;4962747;28;20227;-64
2021/12/20 10:28:11;;;;;;;13.73;8.80;;;;;;;;;;4939116;28;20272;-65
2021/12/20 10:30:41;;;;;;;14.10;9.57;;;;;;;;;;4961983;28;20621;-63
2021/12/20 10:33:09;;;;;;;17.73;9.47;;;;;;;;;;4957574;28;20227;-64
2021/12/20 10:35:39;;;;;;;16.43;9.80;;;;;;;;;;4974407;28;20557;-63
2021/12/20 10:38:26;;;;;;;17.93;10.33;;;;;;;;;;4967897;28;20244;-64
2021/12/20 10:41:00;;;;;;;16.03;9.37;;;;;;;;;;4946082;28;20803;-64
2021/12/20 10:43:36;;;;;;;17.03;10.07;;;;;;;;;;4952526;28;20322;-64
2021/12/20 10:46:16;;;;;;;16.77;9.80;;;;;;;;;;4958638;28;20200;-63
2021/12/20 10:48:45;;;;;;;15.83;10.10;;;;;;;;;;4957037;28;20220;-63
2021/12/20 10:51:17;;;;;;;13.00;9.07;;;;;;;;;;4953611;28;20236;-64
2021/12/20 10:53:54;;;;;;;15.87;9.23;;;;;;;;;;4960038;28;20718;-64
2021/12/20 10:56:22;;;;;;;51.60;22.70;;;;;;;;;;4957381;28;20200;-64
2021/12/20 10:58:53;;;;;;;18.77;10.97;;;;;;;;;;4967841;28;20288;-64
2021/12/20 11:04:03;;;;;;;108.73;49.27;;;;;;;;;;4972170;28;20951;-64
2021/12/20 11:09:19;;;;;;;25.17;14.40;;;;;;;;;;4974452;28;20211;-63
2021/12/20 11:11:48;;;;;;;37.80;21.97;;;;;;;;;;4965014;28;20231;-63
2021/12/20 11:14:16;;;;;;;20.23;13.27;;;;;;;;;;4962185;28;21187;-63
2021/12/20 11:16:46;;;;;;;20.73;13.10;;;;;;;;;;4958205;28;20558;-64
2021/12/20 11:19:16;;;;;;;26.07;17.30;;;;;;;;;;4950086;28;20196;-63
2021/12/20 11:21:50;;;;;;;13.40;8.90;;;;;;;;;;4954855;28;20258;-63
2021/12/20 11:24:19;;;;;;;12.47;8.47;;;;;;;;;;4971619;28;20196;-66
2021/12/20 11:26:47;;;;;;;16.07;8.90;;;;;;;;;;4949162;28;20197;-64
2021/12/20 11:29:14;;;;;;;13.10;8.30;;;;;;;;;;4962965;28;20216;-65
2021/12/20 11:31:45;;;;;;;14.67;9.00;;;;;;;;;;4971323;28;20637;-65
2021/12/20 11:34:13;;;;;;;12.53;8.70;;;;;;;;;;4970864;28;20327;-64
2021/12/20 11:36:41;;;;;;;13.77;8.97;;;;;;;;;;4960384;28;20690;-64
2021/12/20 11:39:09;;;;;;;13.83;8.10;;;;;;;;;;4960148;28;20236;-63
2021/12/20 11:41:37;;;;;;;13.50;8.03;;;;;;;;;;4956386;28;20698;-64
2021/12/20 11:44:06;;;;;;;16.50;10.37;;;;;;;;;;4958347;28;20204;-63
2021/12/20 11:46:38;;;;;;;21.03;12.00;;;;;;;;;;4949765;28;20200;-64
2021/12/20 11:49:06;;;;;;;20.00;11.57;;;;;;;;;;4968207;28;20220;-64
2021/12/20 11:51:52;;;;;;;20.00;11.40;;;;;;;;;;4959108;28;21156;-64
2021/12/20 11:54:37;;;;;;;17.07;9.27;;;;;;;;;;4963173;28;20639;-64
2021/12/20 11:57:05;;;;;;;11.83;7.67;;;;;;;;;;4960891;28;20216;-64
2021/12/20 11:59:49;;;;;;;15.17;8.77;;;;;;;;;;4954111;28;20263;-65
2021/12/20 12:02:21;;;;;;;19.47;11.73;;;;;;;;;;4955260;28;20219;-63
2021/12/20 12:04:56;;;;;;;16.47;9.43;;;;;;;;;;4959149;28;20213;-64
2021/12/20 12:07:24;;;;;;;19.13;9.47;;;;;;;;;;4960208;28;20764;-64
2021/12/20 12:09:59;;;;;;;20.37;10.20;;;;;;;;;;4967391;28;20228;-64
2021/12/20 12:12:28;;;;;;;23.00;12.77;;;;;;;;;;4966795;28;20275;-65
2021/12/20 12:15:13;;;;;;;19.83;11.17;;;;;;;;;;4970854;28;20575;-65
2021/12/20 12:17:50;;;;;;;16.60;10.17;;;;;;;;;;4962138;28;20250;-65
2021/12/20 12:20:37;;;;;;;13.40;9.03;;;;;;;;;;4974410;28;20208;-62
2021/12/20 12:23:21;;;;;;;20.73;10.53;;;;;;;;;;4963526;28;20224;-65
2021/12/20 12:25:56;;;;;;;15.17;9.67;;;;;;;;;;4978241;28;20212;-66
2021/12/20 12:28:42;;;;;;;15.10;8.87;;;;;;;;;;4963360;28;20208;-65
2021/12/20 12:31:17;;;;;;;12.40;8.57;;;;;;;;;;4978621;28;20278;-65
2021/12/20 12:33:44;;;;;;;54.83;27.80;;;;;;;;;;4956764;28;20710;-64
2021/12/20 12:36:26;;;;;;;46.87;24.47;;;;;;;;;;4962170;28;20283;-65
2021/12/20 12:38:55;;;;;;;39.80;26.77;;;;;;;;;;4971581;28;20252;-65
2021/12/20 12:41:25;;;;;;;15.17;8.13;;;;;;;;;;4980698;28;20215;-63
2021/12/20 12:44:02;;;;;;;16.50;9.23;;;;;;;;;;4973219;28;20653;-62
2021/12/20 12:46:42;;;;;;;13.43;7.70;;;;;;;;;;4953679;28;20227;-62
2021/12/20 12:49:22;;;;;;;12.27;7.50;;;;;;;;;;4959771;28;20282;-65
2021/12/20 12:51:51;;;;;;;11.60;7.00;;;;;;;;;;4963129;28;20737;-62
2021/12/20 12:54:48;;;;;;;16.17;7.70;;;;;;;;;;4951601;28;20204;-65
2021/12/20 12:57:16;;;;;;;14.87;8.13;;;;;;;;;;4937180;28;20239;-64
2021/12/20 13:00:00;;;;;;;11.37;5.87;;;;;;;;;;4952147;28;20692;-65
2021/12/20 13:02:36;;;;;;;9.23;5.80;;;;;;;;;;4968355;28;20237;-65
2021/12/20 13:05:06;;;;;;;10.00;6.90;;;;;;;;;;4972861;28;20215;-65
2021/12/20 13:07:35;;;;;;;12.33;7.77;;;;;;;;;;4967317;28;20208;-64
2021/12/20 13:10:07;;;;;;;11.07;6.50;;;;;;;;;;4987148;28;20239;-64
2021/12/20 13:17:48;;;;;;;12.00;7.30;;;;;;;;;;4976638;28;20860;-65
2021/12/20 13:20:37;;;;;;;11.77;6.17;;;;;;;;;;4956514;28;20254;-62
2021/12/20 13:23:17;;;;;;;13.63;8.10;;;;;;;;;;4951899;28;20663;-65
2021/12/20 13:25:50;;;;;;;10.10;6.47;;;;;;;;;;4953186;28;20219;-64
2021/12/20 13:28:20;;;;;;;12.63;7.03;;;;;;;;;;4957542;28;20219;-65
2021/12/20 13:30:50;;;;;;;8.67;5.37;;;;;;;;;;4961311;28;20255;-65
2021/12/20 13:33:19;;;;;;;7.30;4.87;;;;;;;;;;4978501;28;20232;-65
2021/12/20 13:35:49;;;;;;;5.47;4.37;;;;;;;;;;4964763;28;20585;-64
2021/12/20 13:38:18;;;;;;;11.00;6.07;;;;;;;;;;4954638;28;20306;-64
2021/12/20 13:40:58;;;;;;;11.33;5.83;;;;;;;;;;4955259;28;20227;-64
2021/12/20 13:43:36;;;;;;;12.47;6.37;;;;;;;;;;4949241;28;21383;-64
2021/12/20 13:46:05;;;;;;;14.40;7.90;;;;;;;;;;4971816;28;20271;-64
2021/12/20 13:48:34;;;;;;;10.83;6.73;;;;;;;;;;4952534;28;20292;-65
2021/12/20 13:51:01;;;;;;;13.17;5.33;;;;;;;;;;4965207;28;22366;-64
2021/12/20 13:53:32;;;;;;;13.53;8.03;;;;;;;;;;4953819;28;20240;-63
2021/12/20 13:56:01;;;;;;;28.47;17.70;;;;;;;;;;4974948;28;20215;-64
2021/12/20 13:58:29;;;;;;;10.30;7.10;;;;;;;;;;4955723;28;20211;-65
2021/12/20 14:00:57;;;;;;;7.90;5.70;;;;;;;;;;4972091;28;20252;-64
2021/12/20 14:03:25;;;;;;;8.87;5.57;;;;;;;;;;4960588;28;20236;-66
2021/12/20 14:05:53;;;;;;;9.20;5.37;;;;;;;;;;4979583;28;20231;-62
2021/12/20 14:08:22;;;;;;;10.30;6.57;;;;;;;;;;4979428;28;20208;-65
2021/12/20 14:10:53;;;;;;;11.93;7.10;;;;;;;;;;4960806;28;20240;-63
2021/12/20 14:13:22;;;;;;;14.60;8.40;;;;;;;;;;4961371;28;20275;-62
2021/12/20 14:15:57;;;;;;;8.40;5.90;;;;;;;;;;4965194;28;20729;-62
2021/12/20 14:18:31;;;;;;;28.17;14.13;;;;;;;;;;4976555;28;20696;-63
2021/12/20 14:20:59;;;;;;;13.43;7.53;;;;;;;;;;4967382;28;20208;-65
2021/12/20 14:23:26;;;;;;;10.97;7.37;;;;;;;;;;4965688;28;20232;-63
2021/12/20 14:26:13;;;;;;;9.33;6.37;;;;;;;;;;4962326;28;20211;-62
2021/12/20 14:28:44;;;;;;;16.87;11.03;;;;;;;;;;4964427;28;20219;-64
2021/12/20 14:31:13;;;;;;;14.10;9.53;;;;;;;;;;4957037;28;20239;-65
2021/12/20 14:33:48;;;;;;;12.17;7.80;;;;;;;;;;4968348;28;20239;-64
2021/12/20 14:36:17;;;;;;;12.43;7.90;;;;;;;;;;4967928;28;20211;-64
2021/12/20 14:38:52;;;;;;;18.47;10.00;;;;;;;;;;4974521;28;20203;-65
2021/12/20 14:41:27;;;;;;;11.03;7.97;;;;;;;;;;4969018;28;20220;-66
2021/12/20 14:43:56;;;;;;;10.60;7.07;;;;;;;;;;4973128;28;20212;-64
2021/12/20 14:46:30;;;;;;;12.20;7.00;;;;;;;;;;4965553;28;21620;-65
2021/12/20 14:49:11;;;;;;;10.47;6.80;;;;;;;;;;4971550;28;20212;-63
2021/12/20 14:51:38;;;;;;;14.00;7.43;;;;;;;;;;4965720;28;20228;-65
2021/12/20 14:54:23;;;;;;;15.80;9.30;;;;;;;;;;4958376;28;20259;-63